Arrowhead, Minnesota
Current Conditions -  °F | °C
As of 6:36 PM on Friday 24 Oct 2014 (Local Time) from KCOQ Reporting Station
Clear Clear  
Wind Chill: 16°   Ceiling: Unl
Heat Index: 16°   Visibility: 10mi
Dew Point: 10°   Wind: 7mph
Humidity: 68%   Direction: 200°SSW
Pressure: 29.77"   Gusts: NA
Location:  46.8211°N, 92.6871°W
Report Text: KCOQ 242336Z AUTO 20006KT 10SM CLR 16/10 A2977 RMK AO2
Loading
Personal Weather Stations






























Interactive Weather Map
Tropical Storm Tracking
New forecast layout! Learn more

10-Day Weather Forecast

Advertisements
Track Severe Weather on mobile